BCS232P LBSF-LZIB
Flight info
| Callsign | BCS232P |
|---|---|
| Flight time | N/A |
| Altitude | 32000 |
| Route | OGOTA T228 UTEKA DCT DONIV DCT PARAK DCT XOMBA |
| Aircraft | A306/H-SDE3FGHIRWY/LB1 |
Departure
| Time | N/A |
|---|---|
| Airport | Sofia Airport (LBSF) |
Arrival
| Time | 2026-04-27 17:33 |
|---|---|
| Airport | M. R. Štefánik Airport (LZIB) |
| Time | Latitude | Longitude | Altitude | Speed | Heading |
|---|---|---|---|---|---|
| 2026-04-27 17:08 | 47.37444 | 18.56517 | 23278 ft | 371 kts | 318° |
| 2026-04-27 17:09 | 47.39376 | 18.53999 | 22765 ft | 368 kts | 318° |
| 2026-04-27 17:09 | 47.41297 | 18.51491 | 22208 ft | 367 kts | 318° |
| 2026-04-27 17:09 | 47.43201 | 18.49005 | 21644 ft | 365 kts | 318° |
| 2026-04-27 17:09 | 47.45092 | 18.46531 | 21133 ft | 363 kts | 318° |
| 2026-04-27 17:10 | 47.46975 | 18.44065 | 20736 ft | 358 kts | 318° |
| 2026-04-27 17:10 | 47.48852 | 18.41602 | 19998 ft | 362 kts | 318° |
| 2026-04-27 17:10 | 47.50721 | 18.39151 | 19706 ft | 355 kts | 319° |
| 2026-04-27 17:10 | 47.52552 | 18.36748 | 19277 ft | 351 kts | 319° |
| 2026-04-27 17:11 | 47.54386 | 18.34339 | 18752 ft | 351 kts | 319° |
| 2026-04-27 17:11 | 47.57996 | 18.29590 | 17770 ft | 347 kts | 319° |
| 2026-04-27 17:11 | 47.59786 | 18.27232 | 17275 ft | 344 kts | 319° |
| 2026-04-27 17:12 | 47.63334 | 18.22550 | 16269 ft | 340 kts | 319° |
| 2026-04-27 17:12 | 47.65103 | 18.20212 | 15770 ft | 338 kts | 319° |
| 2026-04-27 17:12 | 47.66851 | 18.17899 | 15263 ft | 336 kts | 319° |
| 2026-04-27 17:13 | 47.68594 | 18.15591 | 14844 ft | 333 kts | 318° |
| 2026-04-27 17:13 | 47.70315 | 18.13311 | 14343 ft | 331 kts | 318° |
| 2026-04-27 17:13 | 47.72031 | 18.11035 | 13860 ft | 330 kts | 318° |
| 2026-04-27 17:13 | 47.73732 | 18.08775 | 13367 ft | 327 kts | 318° |
| 2026-04-27 17:14 | 47.75454 | 18.06584 | 12901 ft | 323 kts | 323° |
| 2026-04-27 17:14 | 47.77356 | 18.04820 | 12417 ft | 321 kts | 330° |
| 2026-04-27 17:14 | 47.79300 | 18.03265 | 12182 ft | 311 kts | 331° |
| 2026-04-27 17:14 | 47.81173 | 18.01791 | 12158 ft | 298 kts | 331° |
| 2026-04-27 17:15 | 47.82996 | 18.00350 | 12165 ft | 297 kts | 331° |
| 2026-04-27 17:15 | 47.84800 | 17.98917 | 12009 ft | 299 kts | 331° |
| 2026-04-27 17:15 | 47.86658 | 17.97437 | 11329 ft | 307 kts | 331° |
| 2026-04-27 17:15 | 47.88552 | 17.95924 | 10785 ft | 308 kts | 331° |
| 2026-04-27 17:16 | 47.90432 | 17.94422 | 10457 ft | 302 kts | 331° |
| 2026-04-27 17:16 | 47.92256 | 17.92965 | 10268 ft | 292 kts | 331° |
| 2026-04-27 17:16 | 47.94020 | 17.91552 | 10072 ft | 282 kts | 331° |
| 2026-04-27 17:16 | 47.95718 | 17.90191 | 9918 ft | 272 kts | 331° |
| 2026-04-27 17:17 | 47.96810 | 17.89314 | 9765 ft | 267 kts | 331° |
| 2026-04-27 17:17 | 47.98428 | 17.88015 | 9615 ft | 262 kts | 331° |
| 2026-04-27 17:17 | 48.00039 | 17.86720 | 9458 ft | 263 kts | 331° |
| 2026-04-27 17:18 | 48.03258 | 17.84130 | 9022 ft | 263 kts | 331° |
| 2026-04-27 17:18 | 48.05343 | 17.82325 | 8749 ft | 261 kts | 323° |
| 2026-04-27 17:18 | 48.06274 | 17.81136 | 8654 ft | 261 kts | 317° |
| 2026-04-27 17:18 | 48.07559 | 17.79227 | 8505 ft | 261 kts | 315° |
| 2026-04-27 17:19 | 48.08823 | 17.77282 | 8328 ft | 260 kts | 315° |
| 2026-04-27 17:19 | 48.10083 | 17.75341 | 8196 ft | 260 kts | 315° |
| 2026-04-27 17:19 | 48.11346 | 17.73400 | 8040 ft | 260 kts | 315° |
| 2026-04-27 17:19 | 48.12592 | 17.71488 | 7875 ft | 260 kts | 315° |
| 2026-04-27 17:20 | 48.13771 | 17.69674 | 7737 ft | 260 kts | 314° |
| 2026-04-27 17:20 | 48.14847 | 17.67513 | 7578 ft | 261 kts | 298° |
| 2026-04-27 17:20 | 48.15324 | 17.64902 | 7427 ft | 260 kts | 275° |
| 2026-04-27 17:20 | 48.15034 | 17.62271 | 7270 ft | 257 kts | 251° |
| 2026-04-27 17:21 | 48.14073 | 17.60049 | 7138 ft | 254 kts | 232° |
| 2026-04-27 17:21 | 48.12842 | 17.58199 | 6990 ft | 248 kts | 228° |
| 2026-04-27 17:21 | 48.11590 | 17.56424 | 6834 ft | 248 kts | 228° |
| 2026-04-27 17:21 | 48.10444 | 17.54521 | 6666 ft | 243 kts | 243° |
| 2026-04-27 17:22 | 48.09940 | 17.52204 | 6520 ft | 231 kts | 273° |
| 2026-04-27 17:22 | 48.10263 | 17.49914 | 6385 ft | 225 kts | 300° |
| 2026-04-27 17:22 | 48.11195 | 17.48061 | 6257 ft | 223 kts | 314° |
| 2026-04-27 17:22 | 48.12282 | 17.46386 | 6116 ft | 224 kts | 316° |
| 2026-04-27 17:23 | 48.13383 | 17.44729 | 5992 ft | 225 kts | 316° |
| 2026-04-27 17:23 | 48.14484 | 17.43061 | 5833 ft | 225 kts | 316° |
| 2026-04-27 17:23 | 48.15670 | 17.41558 | 5708 ft | 225 kts | 330° |
| 2026-04-27 17:23 | 48.17147 | 17.40849 | 5569 ft | 224 kts | 356° |
| 2026-04-27 17:24 | 48.18670 | 17.41290 | 5442 ft | 227 kts | 24° |
| 2026-04-27 17:24 | 48.19946 | 17.42691 | 5320 ft | 230 kts | 40° |
| 2026-04-27 17:24 | 48.21085 | 17.44341 | 5176 ft | 231 kts | 42° |
| 2026-04-27 17:24 | 48.22220 | 17.46035 | 5037 ft | 230 kts | 42° |
| 2026-04-27 17:25 | 48.23356 | 17.47720 | 4910 ft | 229 kts | 42° |
| 2026-04-27 17:25 | 48.24493 | 17.49393 | 4754 ft | 229 kts | 42° |
| 2026-04-27 17:25 | 48.25634 | 17.51063 | 4632 ft | 229 kts | 42° |
| 2026-04-27 17:25 | 48.26781 | 17.52719 | 4487 ft | 228 kts | 41° |
| 2026-04-27 17:26 | 48.27917 | 17.54376 | 4364 ft | 228 kts | 42° |
| 2026-04-27 17:26 | 48.29053 | 17.56037 | 4219 ft | 227 kts | 42° |
| 2026-04-27 17:26 | 48.30275 | 17.57534 | 4071 ft | 226 kts | 26° |
| 2026-04-27 17:26 | 48.31762 | 17.58121 | 3942 ft | 222 kts | 357° |
| 2026-04-27 17:27 | 48.33225 | 17.57476 | 3819 ft | 223 kts | 328° |
| 2026-04-27 17:27 | 48.34404 | 17.55964 | 3685 ft | 224 kts | 316° |
| 2026-04-27 17:27 | 48.35475 | 17.54247 | 3559 ft | 226 kts | 310° |
| 2026-04-27 17:27 | 48.36227 | 17.52176 | 3407 ft | 228 kts | 286° |
| 2026-04-27 17:28 | 48.36209 | 17.49807 | 3295 ft | 230 kts | 255° |
| 2026-04-27 17:28 | 48.35388 | 17.47756 | 3173 ft | 232 kts | 230° |
| 2026-04-27 17:28 | 48.33047 | 17.44464 | 2883 ft | 225 kts | 225° |
| 2026-04-27 17:29 | 48.31945 | 17.42885 | 2753 ft | 214 kts | 226° |
| 2026-04-27 17:29 | 48.30898 | 17.41365 | 2620 ft | 204 kts | 226° |
| 2026-04-27 17:29 | 48.29898 | 17.39907 | 2437 ft | 196 kts | 226° |
| 2026-04-27 17:29 | 48.28942 | 17.38519 | 2447 ft | 189 kts | 226° |
| 2026-04-27 17:30 | 48.27998 | 17.37149 | 2476 ft | 189 kts | 226° |
| 2026-04-27 17:30 | 48.26094 | 17.34392 | 2478 ft | 190 kts | 226° |
| 2026-04-27 17:30 | 48.25142 | 17.33017 | 2429 ft | 190 kts | 226° |
| 2026-04-27 17:31 | 48.24191 | 17.31643 | 2180 ft | 190 kts | 226° |
| 2026-04-27 17:31 | 48.23243 | 17.30272 | 1933 ft | 188 kts | 225° |
| 2026-04-27 17:31 | 48.22321 | 17.28940 | 1671 ft | 181 kts | 225° |
| 2026-04-27 17:31 | 48.21421 | 17.27640 | 1411 ft | 176 kts | 225° |
| 2026-04-27 17:32 | 48.20582 | 17.26429 | 1179 ft | 161 kts | 225° |
| 2026-04-27 17:32 | 48.19065 | 17.24235 | 789 ft | 150 kts | 224° |
| 2026-04-27 17:32 | 48.18308 | 17.23152 | 584 ft | 150 kts | 222° |
| 2026-04-27 17:33 | 48.17562 | 17.22078 | 431 ft | 146 kts | 223° |
| 2026-04-27 17:33 | 48.16939 | 17.21185 | 430 ft | 95 kts | 224° |
| 2026-04-27 17:33 | 48.16584 | 17.20669 | 424 ft | 46 kts | 223° |
| 2026-04-27 17:33 | 48.16429 | 17.20449 | 427 ft | 26 kts | 224° |
| 2026-04-27 17:34 | 48.16302 | 17.20270 | 431 ft | 24 kts | 223° |
| 2026-04-27 17:34 | 48.16188 | 17.20103 | 432 ft | 21 kts | 224° |
| 2026-04-27 17:34 | 48.16106 | 17.19940 | 435 ft | 18 kts | 271° |
| 2026-04-27 17:34 | 48.16163 | 17.19813 | 432 ft | 7 kts | 330° |
| 2026-04-27 17:35 | 48.16166 | 17.19810 | 431 ft | 0 kts | 329° |
| 2026-04-27 17:36 | 48.16173 | 17.19805 | 435 ft | 6 kts | 333° |
| 2026-04-27 17:36 | 48.16227 | 17.19791 | 437 ft | 8 kts | 12° |
| 2026-04-27 17:36 | 48.16269 | 17.19827 | 427 ft | 6 kts | 33° |
| 2026-04-27 17:37 | 48.16321 | 17.19878 | 434 ft | 11 kts | 33° |
| 2026-04-27 17:37 | 48.16372 | 17.19941 | 427 ft | 9 kts | 41° |
| 2026-04-27 17:37 | 48.16415 | 17.19997 | 429 ft | 8 kts | 41° |
| 2026-04-27 17:37 | 48.16483 | 17.20084 | 428 ft | 18 kts | 40° |
| 2026-04-27 17:38 | 48.16575 | 17.20200 | 424 ft | 17 kts | 40° |
| 2026-04-27 17:38 | 48.16660 | 17.20308 | 426 ft | 15 kts | 43° |
| 2026-04-27 17:38 | 48.16735 | 17.20412 | 432 ft | 14 kts | 42° |
| 2026-04-27 17:38 | 48.16803 | 17.20508 | 429 ft | 13 kts | 44° |
| 2026-04-27 17:39 | 48.16864 | 17.20598 | 423 ft | 12 kts | 46° |
| 2026-04-27 17:39 | 48.16922 | 17.20693 | 434 ft | 13 kts | 47° |
| 2026-04-27 17:39 | 48.16982 | 17.20790 | 428 ft | 11 kts | 46° |
| 2026-04-27 17:39 | 48.16990 | 17.20802 | 427 ft | 0 kts | 46° |
| 2026-04-27 17:40 | 48.17007 | 17.20828 | 426 ft | 5 kts | 46° |
| 2026-04-27 17:40 | 48.17007 | 17.20830 | 426 ft | 0 kts | 46° |
| 2026-04-27 17:41 | 48.17008 | 17.20831 | 426 ft | 2 kts | 46° |
| 2026-04-27 17:41 | 48.17040 | 17.20880 | 427 ft | 0 kts | 46° |
| 2026-04-27 17:41 | 48.17060 | 17.20912 | 427 ft | 12 kts | 46° |
| 2026-04-27 17:41 | 48.17136 | 17.21022 | 431 ft | 15 kts | 25° |
| 2026-04-27 17:42 | 48.17207 | 17.20960 | 435 ft | 15 kts | 314° |
| 2026-04-27 17:42 | 48.17283 | 17.20845 | 424 ft | 15 kts | 314° |
| 2026-04-27 17:42 | 48.17351 | 17.20739 | 430 ft | 13 kts | 314° |
| 2026-04-27 17:42 | 48.17410 | 17.20650 | 433 ft | 11 kts | 315° |
| 2026-04-27 17:43 | 48.17469 | 17.20562 | 430 ft | 15 kts | 315° |
| 2026-04-27 17:43 | 48.17530 | 17.20432 | 427 ft | 14 kts | 271° |
| 2026-04-27 17:43 | 48.17484 | 17.20320 | 428 ft | 13 kts | 210° |
| 2026-04-27 17:43 | 48.17383 | 17.20325 | 424 ft | 14 kts | 155° |
| 2026-04-27 17:44 | 48.17314 | 17.20417 | 434 ft | 13 kts | 136° |
| 2026-04-27 17:44 | 48.17258 | 17.20505 | 427 ft | 11 kts | 133° |
| 2026-04-27 17:44 | 48.17204 | 17.20575 | 428 ft | 9 kts | 160° |
| 2026-04-27 17:44 | 48.17150 | 17.20550 | 432 ft | 10 kts | 219° |
| 2026-04-27 17:45 | 48.17082 | 17.20448 | 432 ft | 11 kts | 236° |
| 2026-04-27 17:45 | 48.17106 | 17.20396 | 432 ft | 7 kts | 326° |
| 2026-04-27 17:45 | 48.17120 | 17.20376 | 434 ft | 0 kts | 314° |